Wellman, TX (79378)

3:32 PM CDT on July 31, 2014 (GMT -0500)
Seminole (KGNC) Elev 3314 ft | 32.68 °N, 102.65 °W | Change Station

Current weather conditions updated 17 minutes ago

Haze
Haze
82 °F
Feels Like 81 °F
N
4
Wind Variable Wind from NE

Today is forecast to be Much Cooler than yesterday.

Today
High -- | Low -- °F
--% Chance of Precip.
Yesterday
High -- | Low -- °F
Precip. -- in
7:02 AM 8:49 PM
Waxing Crescent, 20% visible
Pressure 30.19 in
Visibility 5.0 miles
Clouds Clear
Heat Index 81 °F
Dew Point 54 °F
Humidity 39%
Rainfall 0.00 in
Snow Depth Not available.
UV 12 out of 12
Pollen 3.30 out of 12
Air Quality Not available.
Flu Activity Not available.
METAR KGNC 312015Z AUTO 04003KT 5SM HZ CLR 28/12 A3019 RMK AO2 T02760123

More Conditions Fewer Conditions

Pressure 30.19 in
Visibility 5.0 miles
Clouds Clear
Heat Index 81 °F
Dew Point 54 °F
Humidity 39%
Rainfall 0.00 in
Snow Depth Not available.
UV 12 out of 12
Pollen 3.30 out of 12
Air Quality Not available.
Flu Activity Not available.
METAR KGNC 312015Z AUTO 04003KT 5SM HZ CLR 28/12 A3019 RMK AO2 T02760123

More Conditions Fewer Conditions

10-Day Weather Forecast

Almanac

Astronomy

Jul. 31, 2014 Rise Set
Actual Time 7:02 AM CDT 8:49 PM CDT
Civil Twilight 6:35 AM CDT 9:16 PM CDT
Nautical Twilight 6:02 AM CDT 9:48 PM CDT
Astronomical Twilight 5:27 AM CDT 10:23 PM CDT
Moon 11:15 AM CDT 11:21 PM CDT
Length of Visible Light 14h 41m
Length of Day
13h 46m
Tomorrow will be 1m 30s shorter.
Waxing Crescent, 20% of the Moon is Illuminated
Today
Waxing Crescent
Aug 3
First Quarter
Aug 10
Full
Aug 17
Last Quarter
Aug 25
New

Today's Extremes

State Highs State Lows

Community

WunderPhotos

Upload Photos

1,739,450 photos uploaded!

Nearby

Snow Depth

Station Depth Elevation
No new snow has been reported.

Earthquake Activity

City Distance Mag. Time & Date
No recent earthquake activity has been reported nearby.
Minimum magnitude displayed is 2.5.

Coastal Water Temperatures

Place Temperature
No Stations Reporting

Nearby Weather Stations

Station Location Temp. Heat Index Dew Point Humidity Wind Precip. Elev Updated Type
WT_Meso Seagraves 1SW, Seagraves, TX 79 °F 80 °F 55 °F 44% NNE  at  7 mph 0.00 in / hr 3359 ft 2:25 PM CDT MADIS
WT_Meso Brownfield 2S, Brownfield, TX 78 °F 79 °F 55 °F 44% NNE  at  11 mph 0.00 in / hr 3313 ft 2:25 PM CDT MADIS
WT_Meso Seminole 2N, Seminole, TX 77 °F 78 °F 55 °F 45% ENE  at  8 mph 0.00 in / hr 3312 ft 2:25 PM CDT MADIS

Show More Stations Show Fewer Stations